sensor_id;sensor_type;location;lat;lon;timestamp;temperature;humidity
41168;DHT22;26906;45.658;9.272;2022-07-21T05:51:47;31.30;88.50
41168;DHT22;26906;45.658;9.272;2022-07-21T05:54:12;31.50;88.50
41168;DHT22;26906;45.658;9.272;2022-07-21T05:56:38;31.60;88.20
41168;DHT22;26906;45.658;9.272;2022-07-21T05:59:04;31.80;87.60
41168;DHT22;26906;45.658;9.272;2022-07-21T06:01:29;32.00;86.60
41168;DHT22;26906;45.658;9.272;2022-07-21T06:03:55;32.10;86.80
41168;DHT22;26906;45.658;9.272;2022-07-21T06:06:21;32.30;86.80
41168;DHT22;26906;45.658;9.272;2022-07-21T06:08:48;32.50;86.00
41168;DHT22;26906;45.658;9.272;2022-07-21T06:11:16;32.80;85.70
41168;DHT22;26906;45.658;9.272;2022-07-21T06:13:43;32.90;84.60
41168;DHT22;26906;45.658;9.272;2022-07-21T06:16:09;33.00;85.20
41168;DHT22;26906;45.658;9.272;2022-07-21T06:18:35;33.10;84.60
41168;DHT22;26906;45.658;9.272;2022-07-21T06:21:02;33.10;84.60
41168;DHT22;26906;45.658;9.272;2022-07-21T06:23:28;33.30;84.50
41168;DHT22;26906;45.658;9.272;2022-07-21T06:25:54;33.50;82.50
41168;DHT22;26906;45.658;9.272;2022-07-21T06:28:20;33.70;83.10
41168;DHT22;26906;45.658;9.272;2022-07-21T06:30:47;33.80;83.50
41168;DHT22;26906;45.658;9.272;2022-07-21T06:33:12;34.00;82.90
41168;DHT22;26906;45.658;9.272;2022-07-21T06:35:39;34.10;81.60
41168;DHT22;26906;45.658;9.272;2022-07-21T06:38:04;34.20;80.80
41168;DHT22;26906;45.658;9.272;2022-07-21T06:40:30;34.00;80.00
41168;DHT22;26906;45.658;9.272;2022-07-21T06:42:57;34.10;80.10
41168;DHT22;26906;45.658;9.272;2022-07-21T06:45:23;34.20;80.10
41168;DHT22;26906;45.658;9.272;2022-07-21T06:47:50;34.40;79.80
41168;DHT22;26906;45.658;9.272;2022-07-21T06:50:16;34.50;78.30
41168;DHT22;26906;45.658;9.272;2022-07-21T06:52:43;34.50;77.80
41168;DHT22;26906;45.658;9.272;2022-07-21T06:55:09;34.70;77.80
41168;DHT22;26906;45.658;9.272;2022-07-21T06:57:35;34.80;77.20
41168;DHT22;26906;45.658;9.272;2022-07-21T07:00:04;35.00;77.10
41168;DHT22;26906;45.658;9.272;2022-07-21T07:02:31;35.20;77.30
41168;DHT22;26906;45.658;9.272;2022-07-21T07:04:57;35.50;77.10
41168;DHT22;26906;45.658;9.272;2022-07-21T07:07:23;35.50;75.60
41168;DHT22;26906;45.658;9.272;2022-07-21T07:09:48;35.40;76.00
41168;DHT22;26906;45.658;9.272;2022-07-21T07:12:14;35.30;75.40
41168;DHT22;26906;45.658;9.272;2022-07-21T07:14:40;35.20;75.90
41168;DHT22;26906;45.658;9.272;2022-07-21T07:17:06;35.20;76.20
41168;DHT22;26906;45.658;9.272;2022-07-21T07:19:32;35.40;76.30
41168;DHT22;26906;45.658;9.272;2022-07-21T07:21:58;35.70;76.30
41168;DHT22;26906;45.658;9.272;2022-07-21T07:24:24;35.60;75.20
41168;DHT22;26906;45.658;9.272;2022-07-21T07:26:50;35.60;75.40
41168;DHT22;26906;45.658;9.272;2022-07-21T07:29:15;35.50;75.70
41168;DHT22;26906;45.658;9.272;2022-07-21T07:31:41;35.80;75.90
41168;DHT22;26906;45.658;9.272;2022-07-21T07:34:07;36.00;75.10
41168;DHT22;26906;45.658;9.272;2022-07-21T07:36:33;36.00;74.80
41168;DHT22;26906;45.658;9.272;2022-07-21T07:39:01;35.80;74.80
41168;DHT22;26906;45.658;9.272;2022-07-21T07:41:27;35.70;74.80
41168;DHT22;26906;45.658;9.272;2022-07-21T07:43:54;36.00;75.60
41168;DHT22;26906;45.658;9.272;2022-07-21T07:46:20;36.20;75.10
41168;DHT22;26906;45.658;9.272;2022-07-21T07:48:46;36.40;74.80
41168;DHT22;26906;45.658;9.272;2022-07-21T07:51:14;36.50;74.90
41168;DHT22;26906;45.658;9.272;2022-07-21T07:53:40;36.50;74.00
41168;DHT22;26906;45.658;9.272;2022-07-21T07:56:07;36.50;74.00
41168;DHT22;26906;45.658;9.272;2022-07-21T07:58:33;36.20;73.60
41168;DHT22;26906;45.658;9.272;2022-07-21T08:00:59;36.20;74.30
41168;DHT22;26906;45.658;9.272;2022-07-21T08:03:26;36.20;74.20
41168;DHT22;26906;45.658;9.272;2022-07-21T08:05:53;36.60;74.50
41168;DHT22;26906;45.658;9.272;2022-07-21T08:08:19;36.90;73.30
41168;DHT22;26906;45.658;9.272;2022-07-21T08:10:46;36.90;73.40
41168;DHT22;26906;45.658;9.272;2022-07-21T08:13:13;37.10;73.10
41168;DHT22;26906;45.658;9.272;2022-07-21T08:15:40;37.20;72.60
41168;DHT22;26906;45.658;9.272;2022-07-21T08:18:06;37.40;72.70
41168;DHT22;26906;45.658;9.272;2022-07-21T08:20:33;37.50;72.00
41168;DHT22;26906;45.658;9.272;2022-07-21T08:22:58;37.60;72.50
41168;DHT22;26906;45.658;9.272;2022-07-21T08:25:24;37.50;71.80
41168;DHT22;26906;45.658;9.272;2022-07-21T08:27:50;37.20;72.00
41168;DHT22;26906;45.658;9.272;2022-07-21T08:30:16;37.20;71.80
41168;DHT22;26906;45.658;9.272;2022-07-21T08:32:41;37.20;71.70
41168;DHT22;26906;45.658;9.272;2022-07-21T08:35:08;37.40;71.90
41168;DHT22;26906;45.658;9.272;2022-07-21T08:37:38;37.70;71.80
41168;DHT22;26906;45.658;9.272;2022-07-21T08:40:07;37.80;71.10
41168;DHT22;26906;45.658;9.272;2022-07-21T08:42:33;37.50;71.10
41168;DHT22;26906;45.658;9.272;2022-07-21T08:44:59;37.30;71.40
41168;DHT22;26906;45.658;9.272;2022-07-21T08:47:26;37.50;71.30
41168;DHT22;26906;45.658;9.272;2022-07-21T08:49:53;37.50;71.50
41168;DHT22;26906;45.658;9.272;2022-07-21T08:52:20;37.70;71.40
41168;DHT22;26906;45.658;9.272;2022-07-21T08:54:46;37.70;71.50
41168;DHT22;26906;45.658;9.272;2022-07-21T08:57:15;37.80;71.50
41168;DHT22;26906;45.658;9.272;2022-07-21T08:59:40;37.90;71.10
41168;DHT22;26906;45.658;9.272;2022-07-21T09:02:27;38.00;71.00
41168;DHT22;26906;45.658;9.272;2022-07-21T09:04:53;38.10;70.40
41168;DHT22;26906;45.658;9.272;2022-07-21T09:07:19;37.70;71.00
41168;DHT22;26906;45.658;9.272;2022-07-21T09:12:21;37.40;71.10
41168;DHT22;26906;45.658;9.272;2022-07-21T09:14:47;37.70;70.50
41168;DHT22;26906;45.658;9.272;2022-07-21T09:17:17;37.50;71.20
41168;DHT22;26906;45.658;9.272;2022-07-21T09:19:46;37.70;71.10
41168;DHT22;26906;45.658;9.272;2022-07-21T09:22:15;37.90;70.90
41168;DHT22;26906;45.658;9.272;2022-07-21T09:24:50;38.00;70.50
41168;DHT22;26906;45.658;9.272;2022-07-21T09:27:21;38.10;70.50
41168;DHT22;26906;45.658;9.272;2022-07-21T09:30:00;38.10;70.90
41168;DHT22;26906;45.658;9.272;2022-07-21T09:32:32;38.00;71.10
41168;DHT22;26906;45.658;9.272;2022-07-21T09:37:25;38.00;71.60
41168;DHT22;26906;45.658;9.272;2022-07-21T09:39:59;37.60;69.70
41168;DHT22;26906;45.658;9.272;2022-07-21T09:42:31;37.10;70.30
41168;DHT22;26906;45.658;9.272;2022-07-21T09:44:58;37.00;70.50
41168;DHT22;26906;45.658;9.272;2022-07-21T09:47:27;36.90;71.00
41168;DHT22;26906;45.658;9.272;2022-07-21T09:49:54;37.30;71.40
41168;DHT22;26906;45.658;9.272;2022-07-21T09:54:49;37.70;70.80
41168;DHT22;26906;45.658;9.272;2022-07-21T09:57:15;38.10;70.80
41168;DHT22;26906;45.658;9.272;2022-07-21T09:59:45;38.10;70.30
41168;DHT22;26906;45.658;9.272;2022-07-21T10:02:19;37.90;70.30
41168;DHT22;26906;45.658;9.272;2022-07-21T10:04:48;37.90;71.30
41168;DHT22;26906;45.658;9.272;2022-07-21T10:07:16;37.90;70.50
41168;DHT22;26906;45.658;9.272;2022-07-21T10:09:43;38.30;71.40
41168;DHT22;26906;45.658;9.272;2022-07-21T10:12:09;38.60;70.30
41168;DHT22;26906;45.658;9.272;2022-07-21T10:14:35;38.40;70.00
41168;DHT22;26906;45.658;9.272;2022-07-21T10:17:01;38.60;70.00
41168;DHT22;26906;45.658;9.272;2022-07-21T10:19:30;38.80;69.40
41168;DHT22;26906;45.658;9.272;2022-07-21T10:22:01;38.70;69.50
41168;DHT22;26906;45.658;9.272;2022-07-21T10:24:30;38.80;70.60
41168;DHT22;26906;45.658;9.272;2022-07-21T10:27:10;38.70;68.90
41168;DHT22;26906;45.658;9.272;2022-07-21T10:30:00;38.80;69.10
41168;DHT22;26906;45.658;9.272;2022-07-21T10:32:37;38.80;69.30
41168;DHT22;26906;45.658;9.272;2022-07-21T10:35:30;38.50;70.10
41168;DHT22;26906;45.658;9.272;2022-07-21T10:37:56;38.60;70.90
41168;DHT22;26906;45.658;9.272;2022-07-21T10:45:32;38.70;70.00
41168;DHT22;26906;45.658;9.272;2022-07-21T10:48:04;38.30;69.90
41168;DHT22;26906;45.658;9.272;2022-07-21T10:53:03;37.70;70.00
41168;DHT22;26906;45.658;9.272;2022-07-21T10:55:31;38.00;70.30
41168;DHT22;26906;45.658;9.272;2022-07-21T10:58:10;38.50;69.60
41168;DHT22;26906;45.658;9.272;2022-07-21T11:00:38;38.70;69.40
41168;DHT22;26906;45.658;9.272;2022-07-21T11:03:14;38.80;69.20
41168;DHT22;26906;45.658;9.272;2022-07-21T11:08:33;39.50;68.20
41168;DHT22;26906;45.658;9.272;2022-07-21T11:11:20;39.50;68.60
41168;DHT22;26906;45.658;9.272;2022-07-21T11:14:08;39.30;68.40
41168;DHT22;26906;45.658;9.272;2022-07-21T11:24:51;38.80;67.80
41168;DHT22;26906;45.658;9.272;2022-07-21T11:27:20;38.70;67.40
41168;DHT22;26906;45.658;9.272;2022-07-21T11:29:48;39.10;67.40
41168;DHT22;26906;45.658;9.272;2022-07-21T11:32:15;39.10;66.90
41168;DHT22;26906;45.658;9.272;2022-07-21T11:34:55;39.10;66.90
41168;DHT22;26906;45.658;9.272;2022-07-21T11:37:42;39.50;66.70
41168;DHT22;26906;45.658;9.272;2022-07-21T11:40:19;39.00;66.20
41168;DHT22;26906;45.658;9.272;2022-07-21T11:42:47;38.70;66.20
41168;DHT22;26906;45.658;9.272;2022-07-21T11:45:16;38.70;67.00
41168;DHT22;26906;45.658;9.272;2022-07-21T11:47:42;39.20;66.40
41168;DHT22;26906;45.658;9.272;2022-07-21T11:50:10;39.40;66.00
41168;DHT22;26906;45.658;9.272;2022-07-21T11:52:38;38.70;67.00
41168;DHT22;26906;45.658;9.272;2022-07-21T11:55:06;39.10;67.00
41168;DHT22;26906;45.658;9.272;2022-07-21T11:57:35;39.50;65.50
41168;DHT22;26906;45.658;9.272;2022-07-21T12:00:01;39.80;66.00
41168;DHT22;26906;45.658;9.272;2022-07-21T12:02:37;39.80;65.50
41168;DHT22;26906;45.658;9.272;2022-07-21T12:05:04;40.00;65.50
41168;DHT22;26906;45.658;9.272;2022-07-21T12:07:41;40.40;65.40
41168;DHT22;26906;45.658;9.272;2022-07-21T12:12:37;41.20;65.10
41168;DHT22;26906;45.658;9.272;2022-07-21T12:17:48;40.50;64.70
41168;DHT22;26906;45.658;9.272;2022-07-21T12:20:23;40.30;64.90
41168;DHT22;26906;45.658;9.272;2022-07-21T12:22:49;40.40;65.00
41168;DHT22;26906;45.658;9.272;2022-07-21T12:25:17;40.80;65.00
41168;DHT22;26906;45.658;9.272;2022-07-21T12:27:45;41.00;64.80
41168;DHT22;26906;45.658;9.272;2022-07-21T12:30:30;40.80;64.70
41168;DHT22;26906;45.658;9.272;2022-07-21T12:33:09;40.80;64.00
41168;DHT22;26906;45.658;9.272;2022-07-21T12:35:40;40.80;64.80
41168;DHT22;26906;45.658;9.272;2022-07-21T12:38:08;40.80;65.00
41168;DHT22;26906;45.658;9.272;2022-07-21T12:40:37;41.20;64.40
41168;DHT22;26906;45.658;9.272;2022-07-21T12:43:17;40.80;64.30
41168;DHT22;26906;45.658;9.272;2022-07-21T12:45:50;40.60;64.50
41168;DHT22;26906;45.658;9.272;2022-07-21T12:48:23;41.00;64.30
41168;DHT22;26906;45.658;9.272;2022-07-21T12:56:16;40.80;64.30
41168;DHT22;26906;45.658;9.272;2022-07-21T12:58:43;40.70;64.10
41168;DHT22;26906;45.658;9.272;2022-07-21T13:01:09;41.00;64.50
41168;DHT22;26906;45.658;9.272;2022-07-21T13:03:35;41.00;64.30
41168;DHT22;26906;45.658;9.272;2022-07-21T13:06:03;40.70;64.70
41168;DHT22;26906;45.658;9.272;2022-07-21T13:08:29;40.80;64.60
41168;DHT22;26906;45.658;9.272;2022-07-21T13:10:55;41.00;65.20
41168;DHT22;26906;45.658;9.272;2022-07-21T13:13:25;41.30;64.60
41168;DHT22;26906;45.658;9.272;2022-07-21T13:15:51;41.10;64.40
41168;DHT22;26906;45.658;9.272;2022-07-21T13:18:17;41.10;64.30
41168;DHT22;26906;45.658;9.272;2022-07-21T13:20:43;40.60;64.50
41168;DHT22;26906;45.658;9.272;2022-07-21T13:23:09;40.80;64.70
41168;DHT22;26906;45.658;9.272;2022-07-21T13:25:35;41.40;65.00
41168;DHT22;26906;45.658;9.272;2022-07-21T13:28:02;41.20;64.10
41168;DHT22;26906;45.658;9.272;2022-07-21T13:30:28;41.50;64.60
41168;DHT22;26906;45.658;9.272;2022-07-21T13:32:54;41.50;64.70
41168;DHT22;26906;45.658;9.272;2022-07-21T13:35:20;41.00;64.80
41168;DHT22;26906;45.658;9.272;2022-07-21T13:37:46;41.40;64.60
41168;DHT22;26906;45.658;9.272;2022-07-21T13:40:12;41.30;63.50
41168;DHT22;26906;45.658;9.272;2022-07-21T13:42:38;41.00;63.60
41168;DHT22;26906;45.658;9.272;2022-07-21T13:45:04;41.00;64.10
41168;DHT22;26906;45.658;9.272;2022-07-21T13:47:31;41.00;64.10
41168;DHT22;26906;45.658;9.272;2022-07-21T13:49:56;41.30;63.80
41168;DHT22;26906;45.658;9.272;2022-07-21T13:52:22;41.30;63.90
41168;DHT22;26906;45.658;9.272;2022-07-21T13:54:48;41.30;63.60
41168;DHT22;26906;45.658;9.272;2022-07-21T13:57:13;40.80;63.90
41168;DHT22;26906;45.658;9.272;2022-07-21T13:59:39;41.10;64.00
41168;DHT22;26906;45.658;9.272;2022-07-21T14:02:07;41.00;64.30
41168;DHT22;26906;45.658;9.272;2022-07-21T14:04:34;41.20;64.00
41168;DHT22;26906;45.658;9.272;2022-07-21T14:07:00;41.10;63.70
41168;DHT22;26906;45.658;9.272;2022-07-21T14:09:26;40.60;63.70
41168;DHT22;26906;45.658;9.272;2022-07-21T14:11:52;40.80;64.50
41168;DHT22;26906;45.658;9.272;2022-07-21T14:14:18;41.10;64.00
41168;DHT22;26906;45.658;9.272;2022-07-21T14:16:49;41.30;63.80
41168;DHT22;26906;45.658;9.272;2022-07-21T14:19:16;41.30;63.90
41168;DHT22;26906;45.658;9.272;2022-07-21T14:21:42;41.60;63.80
41168;DHT22;26906;45.658;9.272;2022-07-21T14:24:08;41.70;63.80
41168;DHT22;26906;45.658;9.272;2022-07-21T14:26:52;41.70;63.40
41168;DHT22;26906;45.658;9.272;2022-07-21T14:29:17;41.80;63.50
41168;DHT22;26906;45.658;9.272;2022-07-21T14:31:45;41.90;63.40
41168;DHT22;26906;45.658;9.272;2022-07-21T14:34:10;42.00;63.90
41168;DHT22;26906;45.658;9.272;2022-07-21T14:36:36;42.00;63.70
41168;DHT22;26906;45.658;9.272;2022-07-21T14:39:02;41.90;63.50
41168;DHT22;26906;45.658;9.272;2022-07-21T14:41:29;42.00;63.20
41168;DHT22;26906;45.658;9.272;2022-07-21T14:43:54;42.10;63.10
41168;DHT22;26906;45.658;9.272;2022-07-21T14:46:20;42.00;63.60
41168;DHT22;26906;45.658;9.272;2022-07-21T14:48:46;41.60;62.70
41168;DHT22;26906;45.658;9.272;2022-07-21T14:51:12;41.40;63.20
41168;DHT22;26906;45.658;9.272;2022-07-21T14:53:37;41.40;63.20
41168;DHT22;26906;45.658;9.272;2022-07-21T14:56:05;41.10;63.10
41168;DHT22;26906;45.658;9.272;2022-07-21T14:58:30;41.20;63.50
41168;DHT22;26906;45.658;9.272;2022-07-21T15:00:56;40.90;63.60
41168;DHT22;26906;45.658;9.272;2022-07-21T15:03:22;40.60;64.00
41168;DHT22;26906;45.658;9.272;2022-07-21T15:05:48;40.80;64.70
41168;DHT22;26906;45.658;9.272;2022-07-21T15:08:13;40.70;64.20
41168;DHT22;26906;45.658;9.272;2022-07-21T15:10:41;40.30;64.40
41168;DHT22;26906;45.658;9.272;2022-07-21T15:13:06;40.40;64.60
41168;DHT22;26906;45.658;9.272;2022-07-21T15:15:32;40.90;64.80
41168;DHT22;26906;45.658;9.272;2022-07-21T15:18:01;41.00;64.20
41168;DHT22;26906;45.658;9.272;2022-07-21T15:20:30;41.10;64.60
41168;DHT22;26906;45.658;9.272;2022-07-21T15:22:56;40.90;64.60
41168;DHT22;26906;45.658;9.272;2022-07-21T15:25:21;40.90;63.70
41168;DHT22;26906;45.658;9.272;2022-07-21T15:27:47;40.70;64.00
41168;DHT22;26906;45.658;9.272;2022-07-21T15:30:14;40.70;64.50
41168;DHT22;26906;45.658;9.272;2022-07-21T15:32:40;40.70;64.40
41168;DHT22;26906;45.658;9.272;2022-07-21T15:35:08;40.80;64.30
41168;DHT22;26906;45.658;9.272;2022-07-21T15:37:34;40.70;64.80
41168;DHT22;26906;45.658;9.272;2022-07-21T15:40:03;40.90;65.10
41168;DHT22;26906;45.658;9.272;2022-07-21T15:42:29;40.90;64.60
41168;DHT22;26906;45.658;9.272;2022-07-21T15:44:57;40.90;64.60
41168;DHT22;26906;45.658;9.272;2022-07-21T15:47:24;40.90;64.60
41168;DHT22;26906;45.658;9.272;2022-07-21T15:49:50;40.90;65.10
41168;DHT22;26906;45.658;9.272;2022-07-21T15:52:15;40.90;65.40
41168;DHT22;26906;45.658;9.272;2022-07-21T15:54:41;40.90;65.70
41168;DHT22;26906;45.658;9.272;2022-07-21T15:57:07;40.50;65.50
41168;DHT22;26906;45.658;9.272;2022-07-21T15:59:35;40.30;66.10
41168;DHT22;26906;45.658;9.272;2022-07-21T16:02:11;40.30;66.30
41168;DHT22;26906;45.658;9.272;2022-07-21T16:04:38;40.30;66.40
41168;DHT22;26906;45.658;9.272;2022-07-21T16:07:05;40.10;66.10
41168;DHT22;26906;45.658;9.272;2022-07-21T16:09:31;39.80;66.00
41168;DHT22;26906;45.658;9.272;2022-07-21T16:11:57;39.80;65.90
41168;DHT22;26906;45.658;9.272;2022-07-21T16:14:24;39.80;66.30
41168;DHT22;26906;45.658;9.272;2022-07-21T16:16:50;39.60;66.50
41168;DHT22;26906;45.658;9.272;2022-07-21T16:19:19;39.30;66.70
41168;DHT22;26906;45.658;9.272;2022-07-21T16:21:45;39.40;67.00
41168;DHT22;26906;45.658;9.272;2022-07-21T16:24:11;39.70;66.70
41168;DHT22;26906;45.658;9.272;2022-07-21T16:26:37;39.90;66.80
41168;DHT22;26906;45.658;9.272;2022-07-21T16:29:03;39.70;66.30
41168;DHT22;26906;45.658;9.272;2022-07-21T16:31:29;39.60;66.90
41168;DHT22;26906;45.658;9.272;2022-07-21T16:33:54;39.30;67.20
41168;DHT22;26906;45.658;9.272;2022-07-21T16:36:20;39.20;67.60
41168;DHT22;26906;45.658;9.272;2022-07-21T16:38:46;39.20;67.50
41168;DHT22;26906;45.658;9.272;2022-07-21T16:41:11;39.40;67.50
41168;DHT22;26906;45.658;9.272;2022-07-21T16:43:37;39.30;67.20
41168;DHT22;26906;45.658;9.272;2022-07-21T16:46:04;39.30;67.70
41168;DHT22;26906;45.658;9.272;2022-07-21T16:48:30;39.00;67.40
41168;DHT22;26906;45.658;9.272;2022-07-21T16:50:56;38.60;67.80
41168;DHT22;26906;45.658;9.272;2022-07-21T16:53:21;38.60;68.50
41168;DHT22;26906;45.658;9.272;2022-07-21T16:55:47;38.50;68.10
41168;DHT22;26906;45.658;9.272;2022-07-21T16:58:13;38.50;68.20
41168;DHT22;26906;45.658;9.272;2022-07-21T17:00:39;38.50;69.20
41168;DHT22;26906;45.658;9.272;2022-07-21T17:03:05;38.30;68.60
41168;DHT22;26906;45.658;9.272;2022-07-21T17:05:31;38.40;68.80
41168;DHT22;26906;45.658;9.272;2022-07-21T17:07:56;38.40;68.50
41168;DHT22;26906;45.658;9.272;2022-07-21T17:10:22;38.20;68.80
41168;DHT22;26906;45.658;9.272;2022-07-21T17:12:48;37.90;69.60
41168;DHT22;26906;45.658;9.272;2022-07-21T17:15:15;38.00;69.00
41168;DHT22;26906;45.658;9.272;2022-07-21T17:17:42;37.90;69.50
41168;DHT22;26906;45.658;9.272;2022-07-21T17:20:09;37.80;69.20
41168;DHT22;26906;45.658;9.272;2022-07-21T17:22:35;37.60;69.40
41168;DHT22;26906;45.658;9.272;2022-07-21T17:25:02;37.70;69.50
41168;DHT22;26906;45.658;9.272;2022-07-21T17:27:28;37.80;69.60
41168;DHT22;26906;45.658;9.272;2022-07-21T17:29:54;37.90;69.40
41168;DHT22;26906;45.658;9.272;2022-07-21T17:32:20;37.90;69.50
41168;DHT22;26906;45.658;9.272;2022-07-21T17:34:46;37.90;69.70
41168;DHT22;26906;45.658;9.272;2022-07-21T17:37:11;37.90;70.10
41168;DHT22;26906;45.658;9.272;2022-07-21T17:39:37;37.90;69.80
41168;DHT22;26906;45.658;9.272;2022-07-21T17:42:03;37.60;69.60
41168;DHT22;26906;45.658;9.272;2022-07-21T17:44:30;37.50;70.20
41168;DHT22;26906;45.658;9.272;2022-07-21T17:46:56;37.50;70.40
41168;DHT22;26906;45.658;9.272;2022-07-21T17:49:22;37.50;70.40
41168;DHT22;26906;45.658;9.272;2022-07-21T17:51:47;37.40;70.60
41168;DHT22;26906;45.658;9.272;2022-07-21T17:54:13;37.40;70.60
41168;DHT22;26906;45.658;9.272;2022-07-21T17:56:39;37.40;70.80
41168;DHT22;26906;45.658;9.272;2022-07-21T17:59:05;37.40;70.70
41168;DHT22;26906;45.658;9.272;2022-07-21T18:01:34;37.30;70.30
41168;DHT22;26906;45.658;9.272;2022-07-21T18:03:59;37.30;70.40
41168;DHT22;26906;45.658;9.272;2022-07-21T18:06:27;37.10;70.50
41168;DHT22;26906;45.658;9.272;2022-07-21T18:08:52;37.00;71.00
41168;DHT22;26906;45.658;9.272;2022-07-21T18:11:18;36.80;71.20
41168;DHT22;26906;45.658;9.272;2022-07-21T18:13:44;36.70;71.20
41168;DHT22;26906;45.658;9.272;2022-07-21T18:16:10;36.50;71.30
41168;DHT22;26906;45.658;9.272;2022-07-21T18:18:38;36.50;71.80
41168;DHT22;26906;45.658;9.272;2022-07-21T18:21:04;36.50;71.90
41168;DHT22;26906;45.658;9.272;2022-07-21T18:23:30;36.50;72.10
41168;DHT22;26906;45.658;9.272;2022-07-21T18:25:56;36.50;72.30
41168;DHT22;26906;45.658;9.272;2022-07-21T18:28:21;36.40;72.40
41168;DHT22;26906;45.658;9.272;2022-07-21T18:30:48;36.40;72.40
41168;DHT22;26906;45.658;9.272;2022-07-21T18:33:14;36.30;72.70
41168;DHT22;26906;45.658;9.272;2022-07-21T18:35:41;36.20;73.60
41168;DHT22;26906;45.658;9.272;2022-07-21T18:38:07;36.20;73.50
41168;DHT22;26906;45.658;9.272;2022-07-21T18:40:34;36.10;73.50
41168;DHT22;26906;45.658;9.272;2022-07-21T18:43:00;36.00;74.00
41168;DHT22;26906;45.658;9.272;2022-07-21T18:45:29;36.00;74.30
41168;DHT22;26906;45.658;9.272;2022-07-21T18:47:56;35.90;74.30
41168;DHT22;26906;45.658;9.272;2022-07-21T18:50:22;35.70;74.60
41168;DHT22;26906;45.658;9.272;2022-07-21T18:52:49;35.60;74.90
41168;DHT22;26906;45.658;9.272;2022-07-21T18:55:15;35.40;75.30
41168;DHT22;26906;45.658;9.272;2022-07-21T18:57:41;35.40;75.60
41168;DHT22;26906;45.658;9.272;2022-07-21T19:00:10;35.20;75.50
41168;DHT22;26906;45.658;9.272;2022-07-21T19:02:36;34.90;75.70
41168;DHT22;26906;45.658;9.272;2022-07-21T19:05:02;34.80;76.20
41168;DHT22;26906;45.658;9.272;2022-07-21T19:07:28;34.90;76.00
41168;DHT22;26906;45.658;9.272;2022-07-21T19:09:54;34.70;76.10
41168;DHT22;26906;45.658;9.272;2022-07-21T19:12:21;34.50;76.60
41168;DHT22;26906;45.658;9.272;2022-07-21T19:14:48;34.40;76.70
41168;DHT22;26906;45.658;9.272;2022-07-21T19:17:14;34.30;76.90
41168;DHT22;26906;45.658;9.272;2022-07-21T19:19:39;34.00;77.40
41168;DHT22;26906;45.658;9.272;2022-07-21T19:22:09;33.80;77.90
41168;DHT22;26906;45.658;9.272;2022-07-21T19:24:35;33.60;77.90
41168;DHT22;26906;45.658;9.272;2022-07-21T19:27:02;33.60;78.10
41168;DHT22;26906;45.658;9.272;2022-07-21T19:29:29;33.60;78.30
41168;DHT22;26906;45.658;9.272;2022-07-21T19:31:55;33.50;78.40
41168;DHT22;26906;45.658;9.272;2022-07-21T19:34:24;33.40;78.50
41168;DHT22;26906;45.658;9.272;2022-07-21T19:36:52;33.30;78.80
41168;DHT22;26906;45.658;9.272;2022-07-21T19:39:19;33.40;78.60
41168;DHT22;26906;45.658;9.272;2022-07-21T19:41:45;33.30;79.00
41168;DHT22;26906;45.658;9.272;2022-07-21T19:44:11;33.00;79.40
41168;DHT22;26906;45.658;9.272;2022-07-21T19:46:37;32.90;79.70
41168;DHT22;26906;45.658;9.272;2022-07-21T19:49:03;32.90;79.90
41168;DHT22;26906;45.658;9.272;2022-07-21T19:51:29;32.80;79.90
41168;DHT22;26906;45.658;9.272;2022-07-21T19:53:55;32.90;80.00
41168;DHT22;26906;45.658;9.272;2022-07-21T19:56:21;32.90;80.80
41168;DHT22;26906;45.658;9.272;2022-07-21T19:58:47;32.90;80.20
41168;DHT22;26906;45.658;9.272;2022-07-21T20:01:13;32.80;81.00
41168;DHT22;26906;45.658;9.272;2022-07-21T20:03:38;32.70;80.70
41168;DHT22;26906;45.658;9.272;2022-07-21T20:06:04;32.50;81.00
41168;DHT22;26906;45.658;9.272;2022-07-21T20:08:30;32.50;81.30
41168;DHT22;26906;45.658;9.272;2022-07-21T20:10:55;32.40;81.40
41168;DHT22;26906;45.658;9.272;2022-07-21T20:13:21;32.30;81.50
41168;DHT22;26906;45.658;9.272;2022-07-21T20:15:47;32.50;81.30
41168;DHT22;26906;45.658;9.272;2022-07-21T20:18:13;32.40;81.50
41168;DHT22;26906;45.658;9.272;2022-07-21T20:20:39;32.50;81.40
41168;DHT22;26906;45.658;9.272;2022-07-21T20:23:05;32.60;81.60
41168;DHT22;26906;45.658;9.272;2022-07-21T20:25:31;32.70;81.40
41168;DHT22;26906;45.658;9.272;2022-07-21T20:27:58;32.70;82.10
41168;DHT22;26906;45.658;9.272;2022-07-21T20:30:24;32.80;82.20
41168;DHT22;26906;45.658;9.272;2022-07-21T20:32:50;32.50;83.00
41168;DHT22;26906;45.658;9.272;2022-07-21T20:35:18;32.40;83.00
41168;DHT22;26906;45.658;9.272;2022-07-21T20:37:46;32.50;82.70
41168;DHT22;26906;45.658;9.272;2022-07-21T20:40:14;32.40;82.60
41168;DHT22;26906;45.658;9.272;2022-07-21T20:42:40;32.30;82.80
41168;DHT22;26906;45.658;9.272;2022-07-21T20:45:06;32.50;83.10
41168;DHT22;26906;45.658;9.272;2022-07-21T20:47:32;32.50;83.20
41168;DHT22;26906;45.658;9.272;2022-07-21T20:49:58;32.50;83.20
41168;DHT22;26906;45.658;9.272;2022-07-21T20:52:27;32.60;83.40
41168;DHT22;26906;45.658;9.272;2022-07-21T20:54:54;32.50;83.30
41168;DHT22;26906;45.658;9.272;2022-07-21T20:57:20;32.40;83.30
41168;DHT22;26906;45.658;9.272;2022-07-21T20:59:46;32.20;83.70
41168;DHT22;26906;45.658;9.272;2022-07-21T21:02:12;32.10;83.90
41168;DHT22;26906;45.658;9.272;2022-07-21T21:04:37;32.10;84.10
41168;DHT22;26906;45.658;9.272;2022-07-21T21:07:03;32.20;84.30
41168;DHT22;26906;45.658;9.272;2022-07-21T21:09:29;32.20;84.30
41168;DHT22;26906;45.658;9.272;2022-07-21T21:11:55;32.10;84.60
41168;DHT22;26906;45.658;9.272;2022-07-21T21:14:20;32.10;84.60
41168;DHT22;26906;45.658;9.272;2022-07-21T21:16:46;32.20;83.60
41168;DHT22;26906;45.658;9.272;2022-07-21T21:19:12;32.20;84.30
41168;DHT22;26906;45.658;9.272;2022-07-21T21:21:38;32.10;84.60
41168;DHT22;26906;45.658;9.272;2022-07-21T21:24:04;32.00;84.50
41168;DHT22;26906;45.658;9.272;2022-07-21T21:26:30;31.90;84.70
41168;DHT22;26906;45.658;9.272;2022-07-21T21:28:56;31.80;85.40
